createdAt,value
2019-03-26T00:04:27.436Z,4.20
2019-03-26T00:09:33.952Z,3.80
2019-03-26T00:14:40.266Z,6.40
2019-03-26T00:19:46.773Z,3.97
2019-03-26T00:24:54.963Z,4.43
2019-03-26T00:30:01.393Z,4.43
2019-03-26T00:35:08.026Z,2.70
2019-03-26T00:40:14.477Z,5.77
2019-03-26T00:45:21.166Z,4.60
2019-03-26T00:50:27.486Z,5.43
2019-03-26T00:55:33.766Z,9.13
2019-03-26T01:00:45.121Z,4.30
2019-03-26T01:05:51.735Z,5.27
2019-03-26T01:10:58.798Z,5.17
2019-03-26T01:16:05.212Z,5.53
2019-03-26T01:21:11.605Z,4.03
2019-03-26T01:26:17.926Z,4.07
2019-03-26T01:31:24.245Z,4.73
2019-03-26T01:36:30.895Z,3.43
2019-03-26T01:41:37.200Z,3.67
2019-03-26T01:46:44.080Z,4.77
2019-03-26T01:51:50.482Z,4.37
2019-03-26T01:56:57.041Z,4.73
2019-03-26T02:02:03.132Z,4.30
2019-03-26T02:07:09.986Z,3.80
2019-03-26T02:12:16.615Z,3.17
2019-03-26T02:17:24.240Z,5.13
2019-03-26T02:22:31.823Z,4.57
2019-03-26T02:27:39.630Z,4.23
2019-03-26T02:32:46.826Z,3.40
2019-03-26T02:37:53.444Z,5.13
2019-03-26T02:43:00.373Z,5.27
2019-03-26T02:48:08.030Z,5.40
2019-03-26T02:53:15.178Z,7.30
2019-03-26T02:58:23.253Z,6.53
2019-03-26T03:03:30.648Z,4.50
2019-03-26T03:08:38.547Z,4.27
2019-03-26T03:13:46.440Z,3.47
2019-03-26T03:18:53.772Z,4.43
2019-03-26T03:24:01.642Z,6.30
2019-03-26T03:29:08.680Z,6.37
2019-03-26T03:34:16.282Z,5.73
2019-03-26T03:39:23.782Z,7.50
2019-03-26T03:44:31.565Z,6.07
2019-03-26T03:49:38.975Z,6.03
2019-03-26T03:54:47.470Z,8.20
2019-03-26T03:59:56.382Z,6.33
2019-03-26T04:05:03.670Z,6.33
2019-03-26T04:54:04.478Z,6.50
2019-03-26T05:05:27.996Z,7.27
2019-03-26T05:10:36.037Z,7.30
2019-03-26T05:57:57.882Z,5.53
2019-03-26T06:03:06.730Z,7.27
2019-03-26T06:08:13.755Z,9.23
2019-03-26T06:13:20.704Z,9.93
2019-03-26T06:18:28.665Z,7.40
2019-03-26T06:23:35.428Z,8.57
2019-03-26T06:28:43.541Z,7.87
2019-03-26T06:33:50.095Z,7.70
2019-03-26T06:39:01.364Z,3.70
2019-03-26T06:44:10.276Z,6.80
2019-03-26T06:49:18.218Z,3.17
2019-03-26T06:54:25.760Z,3.20
2019-03-26T06:59:32.486Z,2.97
2019-03-26T07:04:47.756Z,6.03
2019-03-26T07:09:55.185Z,4.07
2019-03-26T07:15:02.760Z,2.87
2019-03-26T07:20:30.319Z,4.70
2019-03-26T07:25:38.053Z,3.47
2019-03-26T07:30:47.135Z,3.53
2019-03-26T07:35:54.122Z,3.43
2019-03-26T07:41:00.919Z,4.87
2019-03-26T07:46:09.505Z,2.30
2019-03-26T07:51:16.245Z,3.43
2019-03-26T07:56:24.899Z,5.67
2019-03-26T08:01:31.156Z,3.33
2019-03-26T08:06:39.257Z,4.97
2019-03-26T08:11:46.349Z,3.43
2019-03-26T08:16:53.686Z,4.50
2019-03-26T08:22:00.150Z,3.97
2019-03-26T08:27:07.988Z,2.33
2019-03-26T08:32:14.675Z,2.40
2019-03-26T08:37:23.086Z,2.77
2019-03-26T08:42:30.514Z,5.77
2019-03-26T08:47:38.024Z,1.15
2019-03-26T08:52:45.398Z,2.17
2019-03-26T08:57:53.166Z,1.40
2019-03-26T09:03:00.025Z,8.03
2019-03-26T09:08:07.655Z,1.62
2019-03-26T09:13:16.614Z,1.50
2019-03-26T09:18:24.283Z,1.87
2019-03-26T09:23:30.810Z,3.47
2019-03-26T09:28:37.324Z,1.57
2019-03-26T09:33:44.315Z,1.13
2019-03-26T09:38:51.332Z,2.15
2019-03-26T09:43:59.141Z,1.67
2019-03-26T09:49:05.620Z,1.77
2019-03-26T09:54:13.560Z,5.57
2019-03-26T09:59:21.499Z,0.93
2019-03-26T10:04:29.346Z,6.93
2019-03-26T10:09:37.426Z,0.67
2019-03-26T10:14:45.308Z,2.30
2019-03-26T10:19:53.126Z,0.50
2019-03-26T10:24:59.848Z,2.50
2019-03-26T10:30:08.136Z,1.10
2019-03-26T10:35:15.767Z,1.10
2019-03-26T10:40:32.231Z,1.27
2019-03-26T10:45:39.991Z,1.27
2019-03-26T10:50:47.811Z,0.63
2019-03-26T10:55:56.896Z,4.00
2019-03-26T11:01:04.137Z,1.23
2019-03-26T11:06:13.476Z,1.90
2019-03-26T11:11:20.141Z,1.65
2019-03-26T11:16:29.673Z,2.27
2019-03-26T11:21:37.331Z,2.35
2019-03-26T11:26:44.918Z,3.05
2019-03-26T11:31:52.543Z,2.37
2019-03-26T11:37:02.129Z,1.87
2019-03-26T11:42:09.425Z,1.60
2019-03-26T11:47:17.110Z,2.50
2019-03-26T11:52:34.110Z,2.93
2019-03-26T11:57:40.975Z,2.92
2019-03-26T12:02:47.415Z,3.27
2019-03-26T12:07:54.328Z,2.47
2019-03-26T12:13:01.256Z,1.90
2019-03-26T12:18:30.314Z,3.00
2019-03-26T12:23:39.736Z,1.40
2019-03-26T12:28:47.579Z,3.35
2019-03-26T12:33:55.586Z,1.35
2019-03-26T12:39:04.401Z,2.98
2019-03-26T12:44:12.656Z,3.27
2019-03-26T12:49:21.540Z,3.40
2019-03-26T12:54:33.638Z,0.37
2019-03-26T12:59:41.379Z,0.43
2019-03-26T13:04:49.499Z,1.80
2019-03-26T13:09:55.836Z,4.85
2019-03-26T13:15:06.535Z,1.30
2019-03-26T13:20:14.598Z,3.10
2019-03-26T13:25:21.415Z,2.00
2019-03-26T13:30:29.509Z,0.57
2019-03-26T13:35:38.109Z,0.10
2019-03-26T13:41:29.222Z,0.50
2019-03-26T13:46:37.966Z,1.30
2019-03-26T13:51:46.343Z,1.27
2019-03-26T13:56:54.459Z,1.13
2019-03-26T14:02:03.718Z,0.50
2019-03-26T14:07:23.708Z,3.83
2019-03-26T14:12:43.878Z,2.17
2019-03-26T14:17:56.701Z,1.37
2019-03-26T14:23:10.502Z,2.00
2019-03-26T14:28:18.575Z,2.43
2019-03-26T14:33:35.624Z,3.53
2019-03-26T14:38:43.748Z,1.87
2019-03-26T14:49:36.231Z,2.45
2019-03-26T14:54:44.359Z,3.42
2019-03-26T14:59:51.931Z,2.33
2019-03-26T15:05:08.333Z,2.50
2019-03-26T15:16:46.451Z,2.20
2019-03-26T15:22:02.611Z,3.20
2019-03-26T15:28:30.096Z,2.60
2019-03-26T15:33:41.227Z,3.00
2019-03-26T15:38:48.272Z,2.87
2019-03-26T15:43:55.183Z,2.05
2019-03-26T15:49:02.051Z,1.67
2019-03-26T15:54:12.138Z,2.60
2019-03-26T15:59:30.658Z,1.65
2019-03-26T16:04:38.307Z,1.70
2019-03-26T16:09:57.927Z,3.47
2019-03-26T16:15:44.389Z,1.47
2019-03-26T16:20:49.260Z,2.37
2019-03-26T16:25:58.106Z,2.33
2019-03-26T16:31:39.622Z,2.83
2019-03-26T16:43:01.343Z,2.02
2019-03-26T16:48:09.010Z,3.10
2019-03-26T16:53:25.081Z,2.90
2019-03-26T16:58:44.836Z,4.97
2019-03-26T17:04:03.411Z,2.27
2019-03-26T17:09:11.308Z,2.03
2019-03-26T17:14:23.799Z,2.67
2019-03-26T17:19:41.721Z,2.77
2019-03-26T17:24:56.313Z,4.00
2019-03-26T17:30:14.387Z,1.83
2019-03-26T17:35:30.882Z,1.80
2019-03-26T17:40:38.620Z,2.10
2019-03-26T17:45:54.102Z,2.00
2019-03-26T17:51:12.901Z,2.47
2019-03-26T17:56:19.731Z,3.00
2019-03-26T18:01:27.273Z,2.37
2019-03-26T18:06:35.849Z,3.03
2019-03-26T18:11:43.222Z,2.93
2019-03-26T18:16:52.546Z,1.83
2019-03-26T18:22:00.289Z,2.27
2019-03-26T18:27:08.048Z,5.10
2019-03-26T18:32:15.749Z,2.93
2019-03-26T18:37:28.394Z,1.73
2019-03-26T18:42:54.649Z,3.23
2019-03-26T18:48:02.657Z,1.63
2019-03-26T18:53:10.932Z,3.07
2019-03-26T18:58:19.036Z,4.53
2019-03-26T19:03:39.876Z,2.50
2019-03-26T19:08:47.983Z,3.90
2019-03-26T19:13:55.048Z,9.97
2019-03-26T19:19:03.476Z,7.43
2019-03-26T19:24:10.836Z,5.63
2019-03-26T19:29:19.267Z,2.20
2019-03-26T19:34:27.002Z,5.70
2019-03-26T19:39:34.923Z,3.90
2019-03-26T19:44:42.106Z,2.47
2019-03-26T19:49:50.388Z,3.90
2019-03-26T19:55:01.590Z,4.27
2019-03-26T20:00:11.394Z,2.67
2019-03-26T20:05:18.780Z,5.60
2019-03-26T20:10:25.777Z,2.67
2019-03-26T20:15:33.047Z,5.30
2019-03-26T20:20:40.929Z,3.40
2019-03-26T20:25:54.584Z,3.80
2019-03-26T20:31:02.411Z,7.23
2019-03-26T20:36:10.928Z,5.10
2019-03-26T20:41:18.277Z,7.33
2019-03-26T20:46:25.662Z,5.73
2019-03-26T20:51:32.918Z,6.80
2019-03-26T20:56:40.958Z,5.87
2019-03-26T21:01:47.939Z,4.87
2019-03-26T21:06:54.891Z,4.00
2019-03-26T21:12:03.069Z,7.43
2019-03-26T21:17:10.927Z,4.73
2019-03-26T21:22:17.980Z,6.07
2019-03-26T21:27:29.079Z,4.50
2019-03-26T21:32:36.427Z,8.23
2019-03-26T21:37:44.438Z,5.63
2019-03-26T21:42:52.276Z,7.50
2019-03-26T21:48:00.095Z,7.67
2019-03-26T21:53:14.290Z,9.23
2019-03-26T21:58:22.911Z,8.70
2019-03-26T22:03:32.613Z,9.33
2019-03-26T22:08:39.846Z,9.23
2019-03-26T22:13:48.244Z,10.57
2019-03-26T22:18:56.093Z,10.20
2019-03-26T22:24:04.040Z,13.30
2019-03-26T22:29:12.608Z,12.83
2019-03-26T22:34:19.463Z,11.67
2019-03-26T22:39:28.437Z,10.93
2019-03-26T22:44:36.352Z,9.53
2019-03-26T22:49:46.365Z,11.27
2019-03-26T22:54:54.998Z,12.70
2019-03-26T23:00:02.814Z,11.40
2019-03-26T23:05:10.698Z,10.13
2019-03-26T23:10:18.760Z,12.27
2019-03-26T23:15:26.192Z,15.20
2019-03-26T23:20:33.888Z,12.73
2019-03-26T23:25:41.642Z,12.67
2019-03-26T23:30:48.845Z,13.73
2019-03-26T23:35:56.575Z,10.87
2019-03-26T23:41:04.239Z,10.77
2019-03-26T23:46:12.416Z,11.93
2019-03-26T23:51:20.243Z,14.87
2019-03-26T23:56:27.667Z,15.03
